Time;durP1;ratioP1;P1;durP2;ratioP2;P2;SDS_P1;SDS_P2;PMS_P1;PMS_P2;Temp;Humidity;BMP_temperature;BMP_pressure;BME280_temperature;BME280_humidity;BME280_pressure;Samples;Min_cycle;Max_cycle;Signal;HPM_P1;HPM_P2
2022/10/21 00:05:24;;;;;;;;;;;12.70;99.90;;;;;;12546287;28;20310;-37
2022/10/21 00:11:25;;;;;;;;;;;12.60;99.90;;;;;;12556564;28;20269;-38
2022/10/21 00:17:27;;;;;;;;;;;12.50;99.90;;;;;;12562724;28;19924;-37
2022/10/21 00:23:29;;;;;;;;;;;12.50;99.90;;;;;;12550790;28;19929;-37
2022/10/21 00:29:30;;;;;;;;;;;12.50;99.90;;;;;;12560851;28;19929;-37
2022/10/21 00:35:33;;;;;;;;;;;12.80;99.90;;;;;;12560990;28;19932;-37
2022/10/21 00:41:34;;;;;;;;;;;13.10;99.90;;;;;;12553100;28;19925;-37
2022/10/21 00:47:49;;;;;;;;;;;13.20;99.90;;;;;;12532432;28;20045;-37
2022/10/21 00:53:51;;;;;;;;;;;13.30;99.90;;;;;;12537029;28;19932;-36
2022/10/21 00:59:55;;;;;;;;;;;13.30;99.90;;;;;;12547919;28;19932;-37
2022/10/21 01:05:59;;;;;;;;;;;13.20;99.90;;;;;;12552940;28;20291;-37
2022/10/21 01:12:01;;;;;;;;;;;13.30;99.90;;;;;;12547469;28;20377;-37
2022/10/21 01:18:06;;;;;;;;;;;13.30;99.90;;;;;;12553406;28;19935;-36
2022/10/21 01:24:13;;;;;;;;;;;13.30;99.90;;;;;;12545257;28;20016;-37
2022/10/21 01:30:15;;;;;;;;;;;13.20;99.90;;;;;;12552478;28;19928;-37
2022/10/21 01:36:24;;;;;;;;;;;13.30;99.90;;;;;;12552288;28;19931;-36
2022/10/21 01:42:36;;;;;;;;;;;13.30;99.90;;;;;;12552787;28;19932;-37
2022/10/21 01:48:42;;;;;;;;;;;13.30;99.90;;;;;;12555977;28;20400;-36
2022/10/21 01:54:46;;;;;;;;;;;13.40;99.90;;;;;;12555748;28;20019;-37
2022/10/21 02:00:49;;;;;;;;;;;13.30;99.90;;;;;;12550729;28;20313;-37
2022/10/21 02:06:52;;;;;;;;;;;13.20;99.90;;;;;;12553170;28;19925;-37
2022/10/21 02:12:55;;;;;;;;;;;13.10;99.90;;;;;;12554931;28;20316;-37
2022/10/21 02:18:58;;;;;;;;;;;13.00;99.90;;;;;;12541838;28;19929;-37
2022/10/21 02:25:02;;;;;;;;;;;13.10;99.90;;;;;;12546039;28;19925;-36
2022/10/21 02:31:22;;;;;;;;;;;13.10;99.90;;;;;;12541285;28;19982;-37
2022/10/21 02:37:34;;;;;;;;;;;13.00;99.90;;;;;;12506422;28;19940;-37
2022/10/21 02:43:52;;;;;;;;;;;13.10;99.90;;;;;;12508362;28;19932;-36
2022/10/21 02:49:54;;;;;;;;;;;13.20;99.90;;;;;;12486972;28;20072;-37
2022/10/21 02:55:56;;;;;;;;;;;13.20;99.90;;;;;;12485782;28;19929;-37
2022/10/21 03:01:57;;;;;;;;;;;13.20;99.90;;;;;;12505060;28;20882;-38
2022/10/21 03:07:59;;;;;;;;;;;13.30;99.90;;;;;;12496129;28;19925;-37
2022/10/21 03:14:01;;;;;;;;;;;13.10;99.90;;;;;;12503207;28;19929;-37
2022/10/21 03:20:03;;;;;;;;;;;13.20;99.90;;;;;;12507148;28;19925;-38
2022/10/21 03:26:04;;;;;;;;;;;13.20;99.90;;;;;;12507697;28;20373;-36
2022/10/21 03:32:06;;;;;;;;;;;13.20;99.90;;;;;;12514505;28;19925;-37
2022/10/21 03:38:08;;;;;;;;;;;13.10;99.90;;;;;;12557971;28;19924;-36
2022/10/21 03:44:09;;;;;;;;;;;13.20;99.90;;;;;;12560564;28;20320;-37
2022/10/21 03:50:11;;;;;;;;;;;13.20;99.90;;;;;;12545223;28;20384;-36
2022/10/21 03:56:19;;;;;;;;;;;13.20;99.90;;;;;;12554655;28;19925;-36
2022/10/21 04:02:21;;;;;;;;;;;13.20;99.90;;;;;;12552779;28;19929;-36
2022/10/21 04:08:23;;;;;;;;;;;13.30;99.90;;;;;;12560239;28;19925;-37
2022/10/21 04:14:24;;;;;;;;;;;13.40;99.90;;;;;;12544216;28;20384;-36
2022/10/21 04:20:26;;;;;;;;;;;13.40;99.90;;;;;;12564307;28;19928;-36
2022/10/21 04:26:28;;;;;;;;;;;13.30;99.90;;;;;;12563753;28;20376;-36
2022/10/21 04:32:30;;;;;;;;;;;13.40;99.90;;;;;;12550741;28;19932;-36
2022/10/21 04:38:32;;;;;;;;;;;13.40;99.90;;;;;;12556619;28;19973;-36
2022/10/21 04:44:35;;;;;;;;;;;13.40;99.90;;;;;;12553946;28;20075;-38
2022/10/21 04:50:38;;;;;;;;;;;13.40;99.90;;;;;;12547315;28;20032;-37
2022/10/21 04:56:40;;;;;;;;;;;13.30;99.90;;;;;;12555167;28;20011;-37
2022/10/21 05:02:42;;;;;;;;;;;13.30;99.90;;;;;;12553130;28;20365;-36
2022/10/21 05:08:43;;;;;;;;;;;13.20;99.90;;;;;;12561220;28;19929;-36
2022/10/21 05:14:45;;;;;;;;;;;13.30;99.90;;;;;;12557346;28;20391;-36
2022/10/21 05:20:51;;;;;;;;;;;13.20;99.90;;;;;;12544665;28;19924;-37
2022/10/21 05:26:52;;;;;;;;;;;13.20;99.90;;;;;;12541461;28;19925;-36
2022/10/21 05:32:54;;;;;;;;;;;13.10;99.90;;;;;;12552905;28;19935;-36
2022/10/21 05:38:56;;;;;;;;;;;13.10;99.90;;;;;;12529108;28;19933;-36
2022/10/21 05:44:57;;;;;;;;;;;13.10;99.90;;;;;;12550884;28;19935;-36
2022/10/21 05:50:59;;;;;;;;;;;13.10;99.90;;;;;;12545460;28;20014;-37
2022/10/21 05:57:01;;;;;;;;;;;13.20;99.90;;;;;;12539578;28;19925;-37
2022/10/21 06:03:03;;;;;;;;;;;13.20;99.90;;;;;;12547632;28;19925;-36
2022/10/21 06:09:04;;;;;;;;;;;13.20;99.90;;;;;;12541735;28;19929;-36
2022/10/21 06:15:07;;;;;;;;;;;13.20;99.90;;;;;;12560137;28;19962;-36
2022/10/21 06:21:09;;;;;;;;;;;13.10;99.90;;;;;;12550416;28;19932;-37
2022/10/21 06:27:10;;;;;;;;;;;13.10;99.90;;;;;;12547295;28;20019;-37
2022/10/21 06:33:12;;;;;;;;;;;13.20;99.90;;;;;;12557599;28;20336;-36
2022/10/21 06:39:14;;;;;;;;;;;13.30;99.90;;;;;;12555110;28;19925;-37
2022/10/21 06:45:15;;;;;;;;;;;13.30;99.90;;;;;;12554175;28;20372;-36
2022/10/21 06:51:21;;;;;;;;;;;13.30;99.90;;;;;;12539210;28;19928;-36
2022/10/21 06:57:23;;;;;;;;;;;13.30;99.90;;;;;;12564618;28;20316;-37
2022/10/21 07:03:24;;;;;;;;;;;13.30;99.90;;;;;;12562436;28;19928;-36
2022/10/21 07:09:26;;;;;;;;;;;13.40;99.90;;;;;;12564518;28;19951;-36
2022/10/21 07:15:28;;;;;;;;;;;13.40;99.90;;;;;;12553620;28;19932;-36
2022/10/21 07:21:30;;;;;;;;;;;13.50;99.90;;;;;;12557393;28;20404;-37
2022/10/21 07:27:32;;;;;;;;;;;13.50;99.90;;;;;;12557103;28;19935;-37
2022/10/21 07:33:34;;;;;;;;;;;13.50;99.90;;;;;;12553756;28;19931;-36
2022/10/21 07:39:35;;;;;;;;;;;13.40;99.90;;;;;;12559376;28;20370;-37
2022/10/21 07:45:39;;;;;;;;;;;13.40;99.90;;;;;;12550411;28;20407;-37
2022/10/21 07:51:42;;;;;;;;;;;13.50;99.90;;;;;;12558602;28;20012;-36
2022/10/21 07:57:43;;;;;;;;;;;13.60;99.90;;;;;;12551042;28;20277;-39
2022/10/21 08:03:45;;;;;;;;;;;13.80;99.90;;;;;;12561143;28;19978;-39
2022/10/21 08:09:47;;;;;;;;;;;13.90;99.90;;;;;;12559159;28;19936;-38
2022/10/21 08:15:51;;;;;;;;;;;13.80;99.90;;;;;;12548237;28;19994;-38
2022/10/21 08:21:53;;;;;;;;;;;13.80;99.90;;;;;;12560772;28;19929;-39
2022/10/21 08:27:55;;;;;;;;;;;14.10;99.90;;;;;;12555771;28;19933;-39
2022/10/21 08:33:58;;;;;;;;;;;14.40;99.90;;;;;;12549720;28;19932;-39
2022/10/21 08:39:59;;;;;;;;;;;14.60;99.90;;;;;;12553794;28;19932;-38
2022/10/21 08:46:15;;;;;;;;;;;14.70;99.90;;;;;;12555147;28;19969;-39
2022/10/21 08:52:20;;;;;;;;;;;14.80;99.90;;;;;;12554041;28;19925;-39
2022/10/21 08:58:22;;;;;;;;;;;14.90;99.90;;;;;;12556164;28;20288;-39
2022/10/21 09:04:33;;;;;;;;;;;15.00;99.90;;;;;;12553164;28;20066;-39
2022/10/21 09:10:54;;;;;;;;;;;15.10;99.90;;;;;;12548030;28;20059;-39
2022/10/21 09:16:55;;;;;;;;;;;15.10;99.90;;;;;;12547802;28;20334;-39
2022/10/21 09:23:03;;;;;;;;;;;15.20;99.90;;;;;;12564582;28;19928;-38
2022/10/21 09:29:25;;;;;;;;;;;15.30;99.90;;;;;;12553124;28;19989;-39
2022/10/21 09:35:36;;;;;;;;;;;15.40;99.90;;;;;;12496693;28;19925;-39
2022/10/21 09:41:40;;;;;;;;;;;15.50;99.90;;;;;;12494620;28;19951;-38
2022/10/21 09:47:42;;;;;;;;;;;15.50;99.90;;;;;;12503928;28;20293;-39
2022/10/21 09:53:49;;;;;;;;;;;15.60;99.90;;;;;;12502381;28;19929;-39
2022/10/21 09:59:59;;;;;;;;;;;15.60;99.90;;;;;;12509162;28;20440;-38
2022/10/21 10:06:02;;;;;;;;;;;15.60;99.90;;;;;;12503053;28;19948;-39
2022/10/21 10:12:05;;;;;;;;;;;15.60;99.90;;;;;;12505346;28;20300;-39
2022/10/21 10:18:18;;;;;;;;;;;15.60;99.90;;;;;;12503378;28;19932;-39
2022/10/21 10:24:20;;;;;;;;;;;15.60;99.90;;;;;;12510332;28;19932;-38
2022/10/21 10:30:25;;;;;;;;;;;15.60;99.90;;;;;;12503082;28;19932;-38
2022/10/21 10:36:33;;;;;;;;;;;15.70;99.90;;;;;;12550582;28;20612;-39
2022/10/21 10:42:43;;;;;;;;;;;15.80;99.90;;;;;;12562218;28;20395;-38
2022/10/21 10:48:47;;;;;;;;;;;15.90;99.90;;;;;;12546762;28;19936;-38
2022/10/21 10:55:07;;;;;;;;;;;15.90;99.90;;;;;;12569940;28;19924;-38
2022/10/21 11:01:11;;;;;;;;;;;16.00;99.90;;;;;;12560365;28;19932;-39
2022/10/21 11:07:32;;;;;;;;;;;16.00;99.90;;;;;;12562191;28;20381;-38
2022/10/21 11:13:34;;;;;;;;;;;16.00;99.90;;;;;;12554125;28;20510;-38
2022/10/21 11:19:41;;;;;;;;;;;16.00;99.90;;;;;;12550652;28;20018;-38
2022/10/21 11:25:47;;;;;;;;;;;16.10;99.90;;;;;;12556180;28;20346;-38
2022/10/21 11:31:56;;;;;;;;;;;16.10;99.90;;;;;;12549036;28;19924;-38
2022/10/21 11:38:22;;;;;;;;;;;16.10;99.90;;;;;;12554991;28;19932;-39
2022/10/21 11:44:34;;;;;;;;;;;15.90;99.90;;;;;;12561552;28;19924;-38
2022/10/21 11:50:54;;;;;;;;;;;15.90;99.90;;;;;;12558349;28;19932;-39
2022/10/21 11:57:02;;;;;;;;;;;15.90;99.90;;;;;;12558358;28;20311;-39
2022/10/21 12:03:03;;;;;;;;;;;16.00;99.90;;;;;;12560607;28;19924;-38
2022/10/21 12:09:12;;;;;;;;;;;15.90;99.90;;;;;;12545028;28;19929;-38
2022/10/21 12:15:23;;;;;;;;;;;15.90;99.90;;;;;;12554475;28;19924;-39
2022/10/21 12:21:27;;;;;;;;;;;15.90;99.90;;;;;;12546254;28;19924;-39
2022/10/21 12:27:29;;;;;;;;;;;15.90;99.90;;;;;;12544280;28;19924;-39
2022/10/21 12:33:37;;;;;;;;;;;15.90;99.90;;;;;;12536126;28;19925;-38
2022/10/21 12:39:49;;;;;;;;;;;15.90;99.90;;;;;;12536044;28;19932;-39
2022/10/21 12:46:01;;;;;;;;;;;15.80;99.90;;;;;;12541146;28;19931;-39
2022/10/21 12:52:06;;;;;;;;;;;15.70;99.90;;;;;;12555846;28;19925;-39
2022/10/21 12:58:35;;;;;;;;;;;15.60;99.90;;;;;;12555137;28;19925;-39
2022/10/21 13:04:37;;;;;;;;;;;15.50;99.90;;;;;;12539437;28;19991;-39
2022/10/21 13:10:39;;;;;;;;;;;15.40;99.90;;;;;;12539658;28;19937;-39
2022/10/21 13:16:41;;;;;;;;;;;15.40;99.90;;;;;;12558706;28;19925;-39
2022/10/21 13:22:44;;;;;;;;;;;15.30;99.90;;;;;;12541665;28;19929;-39
2022/10/21 13:28:58;;;;;;;;;;;15.40;99.90;;;;;;12548744;28;19970;-39
2022/10/21 13:35:18;;;;;;;;;;;15.40;99.90;;;;;;12551138;28;19974;-39
2022/10/21 13:41:22;;;;;;;;;;;15.40;99.90;;;;;;12548160;28;20023;-39
2022/10/21 13:47:24;;;;;;;;;;;15.30;99.90;;;;;;12544680;28;19924;-38
2022/10/21 13:53:28;;;;;;;;;;;15.30;99.90;;;;;;12540881;28;19929;-38
2022/10/21 13:59:31;;;;;;;;;;;15.30;99.90;;;;;;12553382;28;20019;-39
2022/10/21 14:05:46;;;;;;;;;;;15.20;99.90;;;;;;12548835;28;19932;-39
2022/10/21 14:11:51;;;;;;;;;;;15.20;99.90;;;;;;12563102;28;19924;-39
2022/10/21 14:17:56;;;;;;;;;;;15.30;99.90;;;;;;12555221;28;20346;-39
2022/10/21 14:23:58;;;;;;;;;;;15.40;99.90;;;;;;12550530;28;19929;-39
2022/10/21 14:30:01;;;;;;;;;;;15.50;99.90;;;;;;12541581;28;19968;-39
2022/10/21 14:36:06;;;;;;;;;;;15.50;99.90;;;;;;12540898;28;19924;-39
2022/10/21 14:42:16;;;;;;;;;;;15.50;99.90;;;;;;12540502;28;19939;-38
2022/10/21 14:48:36;;;;;;;;;;;15.50;99.90;;;;;;12544493;28;19925;-39
2022/10/21 14:54:42;;;;;;;;;;;15.60;99.90;;;;;;12523329;28;19925;-39
2022/10/21 15:00:45;;;;;;;;;;;15.60;99.90;;;;;;12544770;28;19929;-39
2022/10/21 15:06:58;;;;;;;;;;;15.60;99.90;;;;;;12557192;28;19982;-39
2022/10/21 15:12:59;;;;;;;;;;;15.50;99.90;;;;;;12555700;28;20007;-39
2022/10/21 15:19:08;;;;;;;;;;;15.60;99.90;;;;;;12547485;28;19997;-40
2022/10/21 15:25:15;;;;;;;;;;;15.60;99.90;;;;;;12554514;28;19932;-41
2022/10/21 15:31:19;;;;;;;;;;;15.60;99.90;;;;;;12556841;28;20293;-38
2022/10/21 15:37:21;;;;;;;;;;;15.50;99.90;;;;;;12534902;28;19932;-40
2022/10/21 15:43:23;;;;;;;;;;;15.50;99.90;;;;;;12537477;28;19935;-39
2022/10/21 15:49:26;;;;;;;;;;;15.50;99.90;;;;;;12555583;28;20300;-39
2022/10/21 15:55:29;;;;;;;;;;;15.40;99.90;;;;;;12548833;28;20395;-39
2022/10/21 16:01:31;;;;;;;;;;;15.50;99.90;;;;;;12558922;28;19929;-40
2022/10/21 16:07:33;;;;;;;;;;;15.40;99.90;;;;;;12560241;28;20495;-40
2022/10/21 16:13:35;;;;;;;;;;;15.40;99.90;;;;;;12562825;28;19932;-39
2022/10/21 16:19:36;;;;;;;;;;;15.30;99.90;;;;;;12560531;28;19936;-39
2022/10/21 16:25:38;;;;;;;;;;;15.20;99.90;;;;;;12559851;28;20015;-40
2022/10/21 16:31:40;;;;;;;;;;;15.10;99.90;;;;;;12557167;28;20292;-39
2022/10/21 16:37:42;;;;;;;;;;;15.00;99.90;;;;;;12562300;28;19924;-39
2022/10/21 16:43:44;;;;;;;;;;;15.00;99.90;;;;;;12551394;28;19925;-38
2022/10/21 16:49:47;;;;;;;;;;;15.10;99.90;;;;;;12559920;28;19929;-40
2022/10/21 16:55:49;;;;;;;;;;;15.00;99.90;;;;;;12548800;28;20346;-39
2022/10/21 17:01:51;;;;;;;;;;;15.10;99.90;;;;;;12556684;28;19925;-40
2022/10/21 17:07:53;;;;;;;;;;;15.00;99.90;;;;;;12543647;28;20452;-38
2022/10/21 17:13:55;;;;;;;;;;;14.90;99.90;;;;;;12540839;28;19925;-39
2022/10/21 17:19:57;;;;;;;;;;;15.00;99.90;;;;;;12560405;28;20296;-39
2022/10/21 17:25:59;;;;;;;;;;;14.90;99.90;;;;;;12547705;28;19925;-39
2022/10/21 17:32:01;;;;;;;;;;;15.00;99.90;;;;;;12543549;28;20335;-39
2022/10/21 17:38:03;;;;;;;;;;;15.20;99.90;;;;;;12564510;28;19929;-39
2022/10/21 17:44:04;;;;;;;;;;;15.10;99.90;;;;;;12540490;28;19939;-40
2022/10/21 17:50:07;;;;;;;;;;;15.10;99.90;;;;;;12547199;28;20282;-39
2022/10/21 17:56:09;;;;;;;;;;;15.10;99.90;;;;;;12509362;28;19924;-39
2022/10/21 18:02:11;;;;;;;;;;;15.10;99.90;;;;;;12547709;28;20369;-39
2022/10/21 18:08:13;;;;;;;;;;;15.10;99.90;;;;;;12565320;28;19924;-39
2022/10/21 18:14:15;;;;;;;;;;;15.10;99.90;;;;;;12554087;28;19931;-40
2022/10/21 18:20:18;;;;;;;;;;;15.00;99.90;;;;;;12552482;28;19929;-40
2022/10/21 18:26:24;;;;;;;;;;;15.00;99.90;;;;;;12549086;28;19925;-39
2022/10/21 18:32:25;;;;;;;;;;;15.00;99.90;;;;;;12554006;28;19970;-39
2022/10/21 18:38:27;;;;;;;;;;;15.00;99.90;;;;;;12558643;28;19933;-39
2022/10/21 18:44:29;;;;;;;;;;;14.90;99.90;;;;;;12531627;28;19929;-39
2022/10/21 18:50:31;;;;;;;;;;;14.90;99.90;;;;;;12555915;28;19928;-38
2022/10/21 18:56:33;;;;;;;;;;;15.00;99.90;;;;;;12553084;28;19929;-40
2022/10/21 19:02:35;;;;;;;;;;;15.00;99.90;;;;;;12549606;28;20604;-39
2022/10/21 19:08:37;;;;;;;;;;;14.90;99.90;;;;;;12558089;28;19994;-39
2022/10/21 19:14:39;;;;;;;;;;;15.00;99.90;;;;;;12553911;28;19925;-39
2022/10/21 19:20:43;;;;;;;;;;;14.90;99.90;;;;;;12561763;28;19934;-39
2022/10/21 19:26:45;;;;;;;;;;;14.80;99.90;;;;;;12554537;28;19931;-39
2022/10/21 19:32:47;;;;;;;;;;;14.80;99.90;;;;;;12540652;28;19929;-40
2022/10/21 19:38:49;;;;;;;;;;;14.70;99.90;;;;;;12548873;28;19936;-39
2022/10/21 19:44:51;;;;;;;;;;;14.60;99.90;;;;;;12553316;28;19935;-40
2022/10/21 19:50:54;;;;;;;;;;;14.60;99.90;;;;;;12554343;28;20299;-39
2022/10/21 19:56:56;;;;;;;;;;;14.60;99.90;;;;;;12556065;28;20254;-39
2022/10/21 20:02:58;;;;;;;;;;;14.60;99.90;;;;;;12558775;28;19929;-38
2022/10/21 20:09:02;;;;;;;;;;;14.60;99.90;;;;;;12552904;28;20415;-39
2022/10/21 20:15:04;;;;;;;;;;;14.60;99.90;;;;;;12543850;28;19929;-40
2022/10/21 20:21:06;;;;;;;;;;;14.70;99.90;;;;;;12560755;28;19928;-38
2022/10/21 20:27:08;;;;;;;;;;;14.70;99.90;;;;;;12559921;28;19975;-39
2022/10/21 20:33:11;;;;;;;;;;;14.70;99.90;;;;;;12551992;28;19967;-39
2022/10/21 20:39:13;;;;;;;;;;;14.70;99.90;;;;;;12556366;28;19929;-39
2022/10/21 20:45:14;;;;;;;;;;;14.70;99.90;;;;;;12560316;28;19925;-39
2022/10/21 20:51:18;;;;;;;;;;;14.70;99.90;;;;;;12560520;28;19978;-39
2022/10/21 20:57:20;;;;;;;;;;;14.60;99.90;;;;;;12547676;28;19928;-39
2022/10/21 21:03:22;;;;;;;;;;;14.60;99.90;;;;;;12558621;28;19925;-39
2022/10/21 21:09:24;;;;;;;;;;;14.60;99.90;;;;;;12531179;28;19925;-39
2022/10/21 21:15:46;;;;;;;;;;;14.60;99.90;;;;;;12554755;28;19940;-39
2022/10/21 21:21:48;;;;;;;;;;;14.60;99.90;;;;;;12537912;28;19933;-39
2022/10/21 21:27:50;;;;;;;;;;;14.60;99.90;;;;;;12534800;28;19924;-38
2022/10/21 21:33:52;;;;;;;;;;;14.50;99.90;;;;;;12546847;28;19929;-39
2022/10/21 21:39:54;;;;;;;;;;;14.40;99.90;;;;;;12529439;28;19928;-38
2022/10/21 21:45:56;;;;;;;;;;;14.40;99.90;;;;;;12544923;28;19932;-39
2022/10/21 21:51:58;;;;;;;;;;;14.40;99.90;;;;;;12547086;28;20381;-39
2022/10/21 21:58:00;;;;;;;;;;;14.40;99.90;;;;;;12549089;28;20015;-39
2022/10/21 22:04:02;;;;;;;;;;;14.40;99.90;;;;;;12558610;28;19955;-39
2022/10/21 22:10:04;;;;;;;;;;;14.40;99.90;;;;;;12557716;28;20266;-39
2022/10/21 22:16:07;;;;;;;;;;;14.30;99.90;;;;;;12523649;28;20356;-39
2022/10/21 22:22:09;;;;;;;;;;;14.30;99.90;;;;;;12559766;28;19934;-39
2022/10/21 22:28:10;;;;;;;;;;;14.30;99.90;;;;;;12555062;28;20297;-39
2022/10/21 22:34:12;;;;;;;;;;;14.30;99.90;;;;;;12543036;28;19928;-38
2022/10/21 22:40:13;;;;;;;;;;;14.30;99.90;;;;;;12540037;28;20013;-39
2022/10/21 22:46:15;;;;;;;;;;;14.30;99.90;;;;;;12553305;28;19991;-39
2022/10/21 22:52:39;;;;;;;;;;;14.30;99.90;;;;;;12546646;28;19928;-39
2022/10/21 22:58:43;;;;;;;;;;;14.30;99.90;;;;;;12536959;28;19924;-39
2022/10/21 23:04:45;;;;;;;;;;;14.20;99.90;;;;;;12553566;28;20377;-39
2022/10/21 23:10:47;;;;;;;;;;;14.30;99.90;;;;;;12533321;28;20391;-40
2022/10/21 23:16:51;;;;;;;;;;;14.40;99.90;;;;;;12551762;28;19929;-39
2022/10/21 23:22:52;;;;;;;;;;;14.50;99.90;;;;;;12549430;28;19981;-39
2022/10/21 23:28:54;;;;;;;;;;;14.50;99.90;;;;;;12548814;28;19924;-39
2022/10/21 23:34:56;;;;;;;;;;;14.50;99.90;;;;;;12558078;28;20376;-39
2022/10/21 23:40:57;;;;;;;;;;;14.40;99.90;;;;;;12550604;28;19939;-39
2022/10/21 23:46:59;;;;;;;;;;;14.50;99.90;;;;;;12558188;28;19928;-38
2022/10/21 23:53:01;;;;;;;;;;;14.40;99.90;;;;;;12564348;28;19924;-39
2022/10/21 23:59:05;;;;;;;;;;;14.30;99.90;;;;;;12556746;28;19932;-39
